createdAt,value
2022-11-15T05:53:24.494Z,75.50
2022-11-15T05:59:05.145Z,75.23
2022-11-15T06:04:44.768Z,75.62
2022-11-15T06:10:24.354Z,75.84
2022-11-15T06:16:04.373Z,76.16
2022-11-15T06:21:43.811Z,75.75
2022-11-15T06:42:04.584Z,74.52
2022-11-15T06:47:48.127Z,74.82
2022-11-15T06:53:29.117Z,75.46
2022-11-15T06:59:09.161Z,75.58
2022-11-15T07:04:49.084Z,75.17
2022-11-15T07:10:29.163Z,75.13
2022-11-15T07:16:11.146Z,75.04
2022-11-15T07:21:50.548Z,75.10
2022-11-15T07:27:30.190Z,75.03
2022-11-15T07:33:09.971Z,74.95
2022-11-15T07:38:49.568Z,75.09
2022-11-15T07:44:29.224Z,74.51
2022-11-15T07:50:09.080Z,74.95
2022-11-15T07:55:48.826Z,74.30
2022-11-15T08:01:29.009Z,73.99
2022-11-15T08:07:08.683Z,73.87
2022-11-15T08:12:48.555Z,73.55
2022-11-15T08:18:28.376Z,73.46
2022-11-15T08:24:11.627Z,72.88
2022-11-15T08:29:53.400Z,72.95
2022-11-15T08:35:36.478Z,72.41
2022-11-15T08:41:26.220Z,71.87
2022-11-15T08:47:05.894Z,72.17
2022-11-15T08:52:45.619Z,71.92
2022-11-15T08:58:25.452Z,71.84
2022-11-15T09:04:05.429Z,71.79
2022-11-15T09:09:45.265Z,71.41
2022-11-15T09:15:25.015Z,71.22
2022-11-15T09:21:05.417Z,71.21
2022-11-15T09:26:45.493Z,71.93
2022-11-15T09:32:25.024Z,71.04
2022-11-15T09:38:05.168Z,71.34
2022-11-15T09:43:57.496Z,71.30
2022-11-15T09:49:36.984Z,71.18
2022-11-15T09:55:12.502Z,70.86
2022-11-15T10:00:47.079Z,70.52
2022-11-15T10:06:15.528Z,70.94
2022-11-15T10:11:39.457Z,70.35
2022-11-15T10:17:10.763Z,70.61
2022-11-15T10:22:48.181Z,69.39
2022-11-15T10:28:22.332Z,69.54
2022-11-15T10:33:43.233Z,69.24
2022-11-15T10:39:04.271Z,69.08
2022-11-15T10:44:30.480Z,70.48
2022-11-15T10:49:56.700Z,69.29
2022-11-15T10:55:17.630Z,69.13
2022-11-15T11:00:42.821Z,69.47
2022-11-15T11:06:13.072Z,70.01
2022-11-15T11:11:51.499Z,70.05
2022-11-15T11:17:43.490Z,69.25
2022-11-15T11:23:55.686Z,69.65
2022-11-15T11:29:23.197Z,70.10
2022-11-15T11:35:04.213Z,69.85
2022-11-15T11:40:39.951Z,69.39
2022-11-15T11:46:10.082Z,68.83
2022-11-15T11:51:51.260Z,69.42
2022-11-15T11:57:37.180Z,70.02
2022-11-15T12:03:17.443Z,69.90
2022-11-15T12:08:44.448Z,70.00
2022-11-15T12:14:14.813Z,69.19
2022-11-15T12:19:36.364Z,69.34
2022-11-15T12:25:02.915Z,69.09
2022-11-15T12:30:26.559Z,69.36
2022-11-15T12:36:01.551Z,69.65
2022-11-15T12:41:30.266Z,69.77
2022-11-15T12:46:50.715Z,70.13
2022-11-15T12:52:11.571Z,69.99
2022-11-15T12:57:40.274Z,70.79
2022-11-15T13:03:25.449Z,70.17
2022-11-15T13:08:48.674Z,70.83
2022-11-15T13:14:37.545Z,71.17
2022-11-15T13:20:07.685Z,71.40
2022-11-15T13:25:37.987Z,71.24
2022-11-15T13:31:14.892Z,71.14
2022-11-15T13:36:36.265Z,71.97
2022-11-15T13:41:57.208Z,71.88
2022-11-15T13:47:20.964Z,72.30
2022-11-15T13:52:46.559Z,72.71
2022-11-15T13:58:10.204Z,72.62
2022-11-15T14:03:42.247Z,72.67
2022-11-15T14:09:12.673Z,72.70
2022-11-15T14:14:33.806Z,72.64
2022-11-15T14:19:55.022Z,72.67
2022-11-15T14:25:19.788Z,73.02
2022-11-15T14:30:41.557Z,72.77
2022-11-15T14:36:16.080Z,73.12
2022-11-15T14:41:40.632Z,72.66
2022-11-15T14:47:01.772Z,72.97
2022-11-15T14:52:33.059Z,73.70
2022-11-15T14:57:54.129Z,73.54
2022-11-15T15:03:14.873Z,73.54
2022-11-15T15:08:36.057Z,73.40
2022-11-15T15:13:59.164Z,73.79
2022-11-15T15:19:19.854Z,74.37
2022-11-15T15:24:40.655Z,74.44
2022-11-15T15:30:01.505Z,74.42
2022-11-15T15:35:23.009Z,74.63
2022-11-15T15:40:43.810Z,74.50
2022-11-15T15:46:04.618Z,74.63
2022-11-15T15:51:25.327Z,74.77
2022-11-15T15:56:46.238Z,74.81
2022-11-15T16:02:07.211Z,74.70
2022-11-15T16:07:30.373Z,74.49
2022-11-15T16:12:52.074Z,74.80
2022-11-15T16:18:17.631Z,74.57
2022-11-15T16:23:38.597Z,74.84
2022-11-15T16:28:59.376Z,74.78
2022-11-15T16:34:20.240Z,75.22
2022-11-15T16:39:41.129Z,75.06
2022-11-15T16:45:02.002Z,75.09
2022-11-15T16:50:28.080Z,74.80
2022-11-15T16:55:49.054Z,74.80
2022-11-15T17:01:18.026Z,74.91
2022-11-15T17:06:40.881Z,75.69
2022-11-15T17:12:02.141Z,75.06
2022-11-15T17:17:23.552Z,75.13
2022-11-15T17:22:45.256Z,74.97
2022-11-15T17:28:06.103Z,75.06
2022-11-15T17:33:27.706Z,75.34
2022-11-15T17:38:58.019Z,75.82
2022-11-15T17:44:20.387Z,75.44
2022-11-15T17:49:41.270Z,75.70
2022-11-15T17:55:02.191Z,75.58
2022-11-15T18:00:23.080Z,75.80
2022-11-15T18:05:44.043Z,75.57
2022-11-15T18:11:12.315Z,76.06
2022-11-15T18:16:35.948Z,76.04
2022-11-15T18:21:57.032Z,75.89
2022-11-15T18:27:17.805Z,75.70
2022-11-15T18:32:38.526Z,75.55
2022-11-15T18:37:59.348Z,75.93
2022-11-15T18:43:20.136Z,76.18
2022-11-15T18:48:43.023Z,76.07
2022-11-15T18:54:04.096Z,76.26
2022-11-15T18:59:24.899Z,76.04
2022-11-15T19:04:45.846Z,75.91
2022-11-15T19:10:07.254Z,76.03
2022-11-15T19:15:28.171Z,76.09
2022-11-15T19:20:49.933Z,76.13
2022-11-15T19:26:13.640Z,76.21
2022-11-15T19:31:35.027Z,76.26
2022-11-15T19:36:56.103Z,76.71
2022-11-15T19:42:16.951Z,76.25
2022-11-15T19:47:37.932Z,76.34
2022-11-15T19:52:58.783Z,76.11
2022-11-15T19:58:19.936Z,76.75
2022-11-15T20:03:40.907Z,76.63
2022-11-15T20:09:01.559Z,76.37
2022-11-15T20:14:23.912Z,76.36
2022-11-15T20:19:44.885Z,75.92
2022-11-15T20:25:06.230Z,76.36
2022-11-15T20:30:26.951Z,76.28
2022-11-15T20:35:48.757Z,76.33
2022-11-15T20:41:09.785Z,76.29
2022-11-15T20:46:30.675Z,76.09
2022-11-15T20:51:51.980Z,76.02
2022-11-15T20:57:13.316Z,76.14
2022-11-15T21:02:34.177Z,76.54
2022-11-15T21:07:54.924Z,76.01
2022-11-15T21:13:15.896Z,76.39
2022-11-15T21:18:36.935Z,75.95
2022-11-15T21:23:57.675Z,76.14
2022-11-15T21:29:22.608Z,76.11
2022-11-15T21:34:43.367Z,76.78
2022-11-15T21:40:04.409Z,76.41
2022-11-15T21:45:25.131Z,76.12
2022-11-15T21:50:55.344Z,76.74
2022-11-15T21:56:16.276Z,76.50
2022-11-15T22:01:56.001Z,76.20
2022-11-15T22:07:16.950Z,76.46
2022-11-15T22:12:38.165Z,76.90
2022-11-15T22:17:58.994Z,76.32
2022-11-15T22:23:19.987Z,76.17
2022-11-15T22:28:41.155Z,76.39
2022-11-15T22:34:02.119Z,76.21
2022-11-15T22:39:22.864Z,76.37
